sensor_id;sensor_type;location;lat;lon;timestamp;pressure;altitude;pressure_sealevel;temperature;humidity
9893;BME280;4985;49.092;8.542;2023-02-11T00:00:21;101409.47;;;11.43;53.55
9893;BME280;4985;49.092;8.542;2023-02-11T00:02:48;101412.97;;;11.43;53.55
9893;BME280;4985;49.092;8.542;2023-02-11T00:05:14;101414.75;;;11.43;53.54
9893;BME280;4985;49.092;8.542;2023-02-11T00:07:41;101402.41;;;11.43;53.55
9893;BME280;4985;49.092;8.542;2023-02-11T00:10:08;101399.91;;;11.42;53.57
9893;BME280;4985;49.092;8.542;2023-02-11T00:12:36;101408.66;;;11.42;53.56
9893;BME280;4985;49.092;8.542;2023-02-11T00:15:04;101412.25;;;11.41;53.59
9893;BME280;4985;49.092;8.542;2023-02-11T00:17:31;101411.28;;;11.42;53.57
9893;BME280;4985;49.092;8.542;2023-02-11T00:19:58;101411.28;;;11.42;53.55
9893;BME280;4985;49.092;8.542;2023-02-11T00:22:25;101410.44;;;11.42;53.58
9893;BME280;4985;49.092;8.542;2023-02-11T00:24:51;101413.09;;;11.42;53.58
9893;BME280;4985;49.092;8.542;2023-02-11T00:27:18;101419.31;;;11.41;53.58
9893;BME280;4985;49.092;8.542;2023-02-11T00:29:46;101413.19;;;11.40;53.57
9893;BME280;4985;49.092;8.542;2023-02-11T00:32:12;101411.53;;;11.39;53.56
9893;BME280;4985;49.092;8.542;2023-02-11T00:34:39;101419.19;;;11.42;53.56
9893;BME280;4985;49.092;8.542;2023-02-11T00:37:06;101415.84;;;11.40;53.56
9893;BME280;4985;49.092;8.542;2023-02-11T00:39:32;101421.00;;;11.42;53.56
9893;BME280;4985;49.092;8.542;2023-02-11T00:41:59;101417.50;;;11.41;53.56
9893;BME280;4985;49.092;8.542;2023-02-11T00:44:25;101416.78;;;11.39;53.57
9893;BME280;4985;49.092;8.542;2023-02-11T00:46:53;101407.94;;;11.40;53.56
9893;BME280;4985;49.092;8.542;2023-02-11T00:49:20;101408.16;;;11.37;53.55
9893;BME280;4985;49.092;8.542;2023-02-11T00:51:46;101406.97;;;11.41;53.56
9893;BME280;4985;49.092;8.542;2023-02-11T00:54:13;101407.94;;;11.40;53.57
9893;BME280;4985;49.092;8.542;2023-02-11T00:56:39;101397.38;;;11.40;53.55
9893;BME280;4985;49.092;8.542;2023-02-11T00:59:06;101397.38;;;11.40;53.56
9893;BME280;4985;49.092;8.542;2023-02-11T01:01:33;101399.19;;;11.40;53.53
9893;BME280;4985;49.092;8.542;2023-02-11T01:04:01;101403.63;;;11.39;53.55
9893;BME280;4985;49.092;8.542;2023-02-11T01:06:28;101397.38;;;11.40;53.56
9893;BME280;4985;49.092;8.542;2023-02-11T01:08:54;101392.09;;;11.40;53.55
9893;BME280;4985;49.092;8.542;2023-02-11T01:11:21;101385.16;;;11.39;53.54
9893;BME280;4985;49.092;8.542;2023-02-11T01:13:48;101388.63;;;11.40;53.56
9893;BME280;4985;49.092;8.542;2023-02-11T01:16:16;101379.87;;;11.39;53.55
9893;BME280;4985;49.092;8.542;2023-02-11T01:18:44;101374.59;;;11.39;53.54
9893;BME280;4985;49.092;8.542;2023-02-11T01:21:12;101363.47;;;11.35;53.54
9893;BME280;4985;49.092;8.542;2023-02-11T01:23:39;101371.97;;;11.39;53.54
9893;BME280;4985;49.092;8.542;2023-02-11T01:26:05;101365.84;;;11.38;53.54
9893;BME280;4985;49.092;8.542;2023-02-11T01:28:32;101369.31;;;11.39;53.54
9893;BME280;4985;49.092;8.542;2023-02-11T01:30:59;101367.66;;;11.38;53.54
9893;BME280;4985;49.092;8.542;2023-02-11T01:33:26;101370.28;;;11.38;53.52
9893;BME280;4985;49.092;8.542;2023-02-11T01:35:52;101365.00;;;11.38;53.51
9893;BME280;4985;49.092;8.542;2023-02-11T01:38:22;101372.81;;;11.40;53.52
9893;BME280;4985;49.092;8.542;2023-02-11T01:40:49;101381.56;;;11.40;53.50
9893;BME280;4985;49.092;8.542;2023-02-11T01:43:19;101378.19;;;11.38;53.51
9893;BME280;4985;49.092;8.542;2023-02-11T01:46:01;101367.66;;;11.38;53.51
9893;BME280;4985;49.092;8.542;2023-02-11T01:48:31;101366.69;;;11.39;53.53
9893;BME280;4985;49.092;8.542;2023-02-11T01:51:04;101367.66;;;11.38;53.50
9893;BME280;4985;49.092;8.542;2023-02-11T01:53:34;101361.53;;;11.37;53.51
9893;BME280;4985;49.092;8.542;2023-02-11T01:56:21;101354.59;;;11.36;53.50
9893;BME280;4985;49.092;8.542;2023-02-11T01:59:11;101352.06;;;11.35;53.51
9893;BME280;4985;49.092;8.542;2023-02-11T02:01:45;101346.69;;;11.36;53.52
9893;BME280;4985;49.092;8.542;2023-02-11T02:04:17;101359.03;;;11.36;53.53
9893;BME280;4985;49.092;8.542;2023-02-11T02:06:48;101348.72;;;11.33;53.53
9893;BME280;4985;49.092;8.542;2023-02-11T02:09:20;101349.44;;;11.35;53.53
9893;BME280;4985;49.092;8.542;2023-02-11T02:11:48;101351.22;;;11.34;53.54
9893;BME280;4985;49.092;8.542;2023-02-11T02:14:16;101357.34;;;11.35;53.55
9893;BME280;4985;49.092;8.542;2023-02-11T02:16:43;101347.62;;;11.35;53.55
9893;BME280;4985;49.092;8.542;2023-02-11T02:19:38;101348.72;;;11.33;53.55
9893;BME280;4985;49.092;8.542;2023-02-11T02:22:27;101345.13;;;11.34;53.55
9893;BME280;4985;49.092;8.542;2023-02-11T02:25:12;101339.84;;;11.34;53.54
9893;BME280;4985;49.092;8.542;2023-02-11T02:27:52;101332.16;;;11.31;53.54
9893;BME280;4985;49.092;8.542;2023-02-11T02:30:52;101339.72;;;11.35;53.52
9893;BME280;4985;49.092;8.542;2023-02-11T02:33:35;101339.00;;;11.33;53.54
9893;BME280;4985;49.092;8.542;2023-02-11T02:36:13;101312.38;;;11.25;53.55
9893;BME280;4985;49.092;8.542;2023-02-11T02:38:47;101322.34;;;11.33;53.56
9893;BME280;4985;49.092;8.542;2023-02-11T02:41:18;101321.37;;;11.34;53.55
9893;BME280;4985;49.092;8.542;2023-02-11T02:43:48;101311.81;;;11.33;53.55
9893;BME280;4985;49.092;8.542;2023-02-11T02:46:17;101307.44;;;11.32;53.55
9893;BME280;4985;49.092;8.542;2023-02-11T02:48:47;101314.44;;;11.33;53.54
9893;BME280;4985;49.092;8.542;2023-02-11T02:51:26;101312.72;;;11.32;53.56
9893;BME280;4985;49.092;8.542;2023-02-11T02:54:04;101322.34;;;11.33;53.55
9893;BME280;4985;49.092;8.542;2023-02-11T02:56:38;101306.53;;;11.33;53.54
9893;BME280;4985;49.092;8.542;2023-02-11T02:59:25;101285.44;;;11.33;53.53
9893;BME280;4985;49.092;8.542;2023-02-11T03:02:01;101277.53;;;11.33;53.51
9893;BME280;4985;49.092;8.542;2023-02-11T03:04:35;101288.06;;;11.33;53.50
9893;BME280;4985;49.092;8.542;2023-02-11T03:07:08;101277.63;;;11.31;53.53
9893;BME280;4985;49.092;8.542;2023-02-11T03:09:40;101279.41;;;11.31;53.54
9893;BME280;4985;49.092;8.542;2023-02-11T03:12:10;101280.25;;;11.31;53.54
9893;BME280;4985;49.092;8.542;2023-02-11T03:14:39;101275.94;;;11.30;53.54
9893;BME280;4985;49.092;8.542;2023-02-11T03:17:07;101276.78;;;11.31;53.54
9893;BME280;4985;49.092;8.542;2023-02-11T03:19:38;101291.63;;;11.32;53.55
9893;BME280;4985;49.092;8.542;2023-02-11T03:22:11;101269.81;;;11.30;53.56
9893;BME280;4985;49.092;8.542;2023-02-11T03:24:39;101267.19;;;11.30;53.55
9893;BME280;4985;49.092;8.542;2023-02-11T03:27:11;101264.56;;;11.30;53.54
9893;BME280;4985;49.092;8.542;2023-02-11T03:29:42;101273.31;;;11.30;53.54
9893;BME280;4985;49.092;8.542;2023-02-11T03:32:17;101264.78;;;11.27;53.55
9893;BME280;4985;49.092;8.542;2023-02-11T03:34:49;101254.97;;;11.29;53.56
9893;BME280;4985;49.092;8.542;2023-02-11T03:37:21;101262.03;;;11.28;53.57
9893;BME280;4985;49.092;8.542;2023-02-11T03:39:51;101252.31;;;11.29;53.54
9893;BME280;4985;49.092;8.542;2023-02-11T03:42:21;101247.06;;;11.29;53.55
9893;BME280;4985;49.092;8.542;2023-02-11T03:44:51;101251.50;;;11.28;53.55
9893;BME280;4985;49.092;8.542;2023-02-11T03:47:22;101254.25;;;11.27;53.55
9893;BME280;4985;49.092;8.542;2023-02-11T03:49:54;101273.44;;;11.29;53.56
9893;BME280;4985;49.092;8.542;2023-02-11T03:52:23;101268.16;;;11.29;53.55
9893;BME280;4985;49.092;8.542;2023-02-11T03:54:54;101276.06;;;11.29;53.55
9893;BME280;4985;49.092;8.542;2023-02-11T03:57:22;101277.16;;;11.26;53.54
9893;BME280;4985;49.092;8.542;2023-02-11T03:59:51;101279.91;;;11.25;53.55
9893;BME280;4985;49.092;8.542;2023-02-11T04:02:18;101283.25;;;11.27;53.55
9893;BME280;4985;49.092;8.542;2023-02-11T04:04:46;101291.16;;;11.27;53.55
9893;BME280;4985;49.092;8.542;2023-02-11T04:07:14;101289.50;;;11.26;53.56
9893;BME280;4985;49.092;8.542;2023-02-11T04:09:40;101292.84;;;11.28;53.57
9893;BME280;4985;49.092;8.542;2023-02-11T04:12:07;101284.22;;;11.26;53.57
9893;BME280;4985;49.092;8.542;2023-02-11T04:14:34;101285.91;;;11.27;53.58
9893;BME280;4985;49.092;8.542;2023-02-11T04:17:00;101283.25;;;11.27;53.59
9893;BME280;4985;49.092;8.542;2023-02-11T04:19:27;101272.00;;;11.25;53.58
9893;BME280;4985;49.092;8.542;2023-02-11T04:21:54;101272.00;;;11.25;53.58
9893;BME280;4985;49.092;8.542;2023-02-11T04:24:21;101271.03;;;11.26;53.59
9893;BME280;4985;49.092;8.542;2023-02-11T04:26:48;101268.41;;;11.26;53.60
9893;BME280;4985;49.092;8.542;2023-02-11T04:29:15;101263.13;;;11.26;53.57
9893;BME280;4985;49.092;8.542;2023-02-11T04:31:41;101264.09;;;11.25;53.57
9893;BME280;4985;49.092;8.542;2023-02-11T04:34:08;101263.25;;;11.24;53.58
9893;BME280;4985;49.092;8.542;2023-02-11T04:36:34;101271.16;;;11.24;53.59
9893;BME280;4985;49.092;8.542;2023-02-11T04:39:01;101283.38;;;11.25;53.58
9893;BME280;4985;49.092;8.542;2023-02-11T04:41:29;101273.78;;;11.24;53.58
9893;BME280;4985;49.092;8.542;2023-02-11T04:43:55;101279.06;;;11.24;53.58
9893;BME280;4985;49.092;8.542;2023-02-11T04:46:22;101270.31;;;11.24;53.58
9893;BME280;4985;49.092;8.542;2023-02-11T04:48:48;101269.47;;;11.23;53.58
9893;BME280;4985;49.092;8.542;2023-02-11T04:51:15;101269.81;;;11.19;53.63
9893;BME280;4985;49.092;8.542;2023-02-11T04:53:41;101258.22;;;11.21;53.63
9893;BME280;4985;49.092;8.542;2023-02-11T04:56:08;101257.34;;;11.21;53.64
9893;BME280;4985;49.092;8.542;2023-02-11T04:58:36;101253.78;;;11.22;53.64
9893;BME280;4985;49.092;8.542;2023-02-11T05:01:06;101260.00;;;11.21;53.64
9893;BME280;4985;49.092;8.542;2023-02-11T05:03:33;101245.03;;;11.21;53.64
9893;BME280;4985;49.092;8.542;2023-02-11T05:05:59;101235.41;;;11.20;53.64
9893;BME280;4985;49.092;8.542;2023-02-11T05:08:26;101211.81;;;11.19;53.63
9893;BME280;4985;49.092;8.542;2023-02-11T05:10:53;101208.12;;;11.21;53.63
9893;BME280;4985;49.092;8.542;2023-02-11T05:13:19;101201.16;;;11.20;53.63
9893;BME280;4985;49.092;8.542;2023-02-11T05:15:47;101202.94;;;11.20;53.64
9893;BME280;4985;49.092;8.542;2023-02-11T05:18:14;101199.59;;;11.18;53.66
9893;BME280;4985;49.092;8.542;2023-02-11T05:20:40;101205.72;;;11.18;53.67
9893;BME280;4985;49.092;8.542;2023-02-11T05:23:07;101202.25;;;11.18;53.67
9893;BME280;4985;49.092;8.542;2023-02-11T05:25:34;101199.72;;;11.16;53.67
9893;BME280;4985;49.092;8.542;2023-02-11T05:28:00;101188.22;;;11.17;53.68
9893;BME280;4985;49.092;8.542;2023-02-11T05:30:27;101178.63;;;11.16;53.67
9893;BME280;4985;49.092;8.542;2023-02-11T05:32:55;101196.97;;;11.18;53.67
9893;BME280;4985;49.092;8.542;2023-02-11T05:35:22;101202.25;;;11.18;53.69
9893;BME280;4985;49.092;8.542;2023-02-11T05:37:49;101212.78;;;11.18;53.68
9893;BME280;4985;49.092;8.542;2023-02-11T05:40:16;101228.59;;;11.18;53.68
9893;BME280;4985;49.092;8.542;2023-02-11T05:42:42;101234.84;;;11.17;53.65
9893;BME280;4985;49.092;8.542;2023-02-11T05:45:09;101239.16;;;11.18;53.67
9893;BME280;4985;49.092;8.542;2023-02-11T05:47:36;101235.66;;;11.17;53.65
9893;BME280;4985;49.092;8.542;2023-02-11T05:50:04;101243.59;;;11.17;53.66
9893;BME280;4985;49.092;8.542;2023-02-11T05:52:31;101245.38;;;11.17;53.68
9893;BME280;4985;49.092;8.542;2023-02-11T05:54:58;101235.78;;;11.16;53.71
9893;BME280;4985;49.092;8.542;2023-02-11T05:57:24;101243.69;;;11.16;53.70
9893;BME280;4985;49.092;8.542;2023-02-11T05:59:51;101243.69;;;11.16;53.72
9893;BME280;4985;49.092;8.542;2023-02-11T06:02:17;101246.34;;;11.16;53.74
9893;BME280;4985;49.092;8.542;2023-02-11T06:04:44;101234.97;;;11.15;53.73
9893;BME280;4985;49.092;8.542;2023-02-11T06:07:12;101229.69;;;11.15;53.72
9893;BME280;4985;49.092;8.542;2023-02-11T06:09:38;101222.75;;;11.14;53.72
9893;BME280;4985;49.092;8.542;2023-02-11T06:12:05;101223.56;;;11.15;53.73
9893;BME280;4985;49.092;8.542;2023-02-11T06:14:32;101222.97;;;11.11;53.74
9893;BME280;4985;49.092;8.542;2023-02-11T06:16:59;101225.50;;;11.13;53.74
9893;BME280;4985;49.092;8.542;2023-02-11T06:19:26;101227.16;;;11.14;53.76
9893;BME280;4985;49.092;8.542;2023-02-11T06:21:54;101228.00;;;11.14;53.76
9893;BME280;4985;49.092;8.542;2023-02-11T06:24:22;101227.16;;;11.14;53.74
9893;BME280;4985;49.092;8.542;2023-02-11T06:26:49;101234.13;;;11.15;53.74
9893;BME280;4985;49.092;8.542;2023-02-11T06:29:15;101237.72;;;11.14;53.73
9893;BME280;4985;49.092;8.542;2023-02-11T06:31:42;101234.13;;;11.15;53.72
9893;BME280;4985;49.092;8.542;2023-02-11T06:34:09;101228.00;;;11.14;53.70
9893;BME280;4985;49.092;8.542;2023-02-11T06:36:36;101228.00;;;11.14;53.71
9893;BME280;4985;49.092;8.542;2023-02-11T06:39:03;101228.84;;;11.15;53.72
9893;BME280;4985;49.092;8.542;2023-02-11T06:41:32;101222.75;;;11.14;53.72
9893;BME280;4985;49.092;8.542;2023-02-11T06:43:59;101221.91;;;11.14;53.71
9893;BME280;4985;49.092;8.542;2023-02-11T06:46:26;101221.91;;;11.14;53.70
9893;BME280;4985;49.092;8.542;2023-02-11T06:48:52;101229.81;;;11.14;53.72
9893;BME280;4985;49.092;8.542;2023-02-11T06:51:19;101228.84;;;11.15;53.72
9893;BME280;4985;49.092;8.542;2023-02-11T06:53:46;101224.53;;;11.14;53.72
9893;BME280;4985;49.092;8.542;2023-02-11T06:56:14;101224.78;;;11.11;53.72
9893;BME280;4985;49.092;8.542;2023-02-11T06:58:42;101237.72;;;11.14;53.72
9893;BME280;4985;49.092;8.542;2023-02-11T07:01:11;101232.44;;;11.14;53.73
9893;BME280;4985;49.092;8.542;2023-02-11T07:03:40;101230.78;;;11.13;53.71
9893;BME280;4985;49.092;8.542;2023-02-11T07:06:09;101229.09;;;11.12;53.74
9893;BME280;4985;49.092;8.542;2023-02-11T07:08:37;101227.41;;;11.11;53.76
9893;BME280;4985;49.092;8.542;2023-02-11T07:11:08;101229.22;;;11.10;53.78
9893;BME280;4985;49.092;8.542;2023-02-11T07:13:34;101234.56;;;11.08;53.80
9893;BME280;4985;49.092;8.542;2023-02-11T07:16:04;101235.41;;;11.09;53.81
9893;BME280;4985;49.092;8.542;2023-02-11T07:18:31;101254.81;;;11.08;53.83
9893;BME280;4985;49.092;8.542;2023-02-11T07:20:57;101253.03;;;11.08;53.83
9893;BME280;4985;49.092;8.542;2023-02-11T07:23:24;101256.41;;;11.11;53.80
9893;BME280;4985;49.092;8.542;2023-02-11T07:25:51;101256.50;;;11.09;53.80
9893;BME280;4985;49.092;8.542;2023-02-11T07:28:17;101266.97;;;11.11;53.79
9893;BME280;4985;49.092;8.542;2023-02-11T07:30:44;101273.16;;;11.09;53.80
9893;BME280;4985;49.092;8.542;2023-02-11T07:33:11;101268.75;;;11.10;53.80
9893;BME280;4985;49.092;8.542;2023-02-11T07:35:38;101271.41;;;11.10;53.79
9893;BME280;4985;49.092;8.542;2023-02-11T07:38:05;101276.66;;;11.10;53.78
9893;BME280;4985;49.092;8.542;2023-02-11T07:40:31;101271.28;;;11.12;53.76
9893;BME280;4985;49.092;8.542;2023-02-11T07:42:59;101275.69;;;11.11;53.77
9893;BME280;4985;49.092;8.542;2023-02-11T07:45:26;101274.88;;;11.11;53.78
9893;BME280;4985;49.092;8.542;2023-02-11T07:47:52;101280.13;;;11.11;53.78
9893;BME280;4985;49.092;8.542;2023-02-11T07:50:20;101266.97;;;11.11;53.77
9893;BME280;4985;49.092;8.542;2023-02-11T07:52:47;101256.50;;;11.09;53.79
9893;BME280;4985;49.092;8.542;2023-02-11T07:55:13;101262.62;;;11.09;53.80
9893;BME280;4985;49.092;8.542;2023-02-11T07:57:40;101266.97;;;11.11;53.79
9893;BME280;4985;49.092;8.542;2023-02-11T08:00:07;101247.66;;;11.10;53.78
9893;BME280;4985;49.092;8.542;2023-02-11T08:02:34;101219.00;;;10.94;53.81
9893;BME280;4985;49.092;8.542;2023-02-11T08:05:01;101239.84;;;11.08;53.83
9893;BME280;4985;49.092;8.542;2023-02-11T08:07:29;101244.28;;;11.08;53.83
9893;BME280;4985;49.092;8.542;2023-02-11T08:09:55;101251.22;;;11.09;53.83
9893;BME280;4985;49.092;8.542;2023-02-11T08:12:22;101239.00;;;11.08;53.83
9893;BME280;4985;49.092;8.542;2023-02-11T08:14:48;101240.59;;;11.11;53.80
9893;BME280;4985;49.092;8.542;2023-02-11T08:17:15;101246.72;;;11.11;53.79
9893;BME280;4985;49.092;8.542;2023-02-11T08:19:42;101241.31;;;11.13;53.78
9893;BME280;4985;49.092;8.542;2023-02-11T08:22:08;101245.75;;;11.12;53.76
9893;BME280;4985;49.092;8.542;2023-02-11T08:24:36;101246.59;;;11.13;53.75
9893;BME280;4985;49.092;8.542;2023-02-11T08:27:03;101244.78;;;11.13;53.74
9893;BME280;4985;49.092;8.542;2023-02-11T08:29:29;101243.00;;;11.14;53.73
9893;BME280;4985;49.092;8.542;2023-02-11T08:31:56;101246.59;;;11.13;53.72
9893;BME280;4985;49.092;8.542;2023-02-11T08:34:22;101243.94;;;11.13;53.73
9893;BME280;4985;49.092;8.542;2023-02-11T08:36:49;101246.59;;;11.13;53.73
9893;BME280;4985;49.092;8.542;2023-02-11T08:39:17;101241.31;;;11.13;53.75
9893;BME280;4985;49.092;8.542;2023-02-11T08:41:47;101245.62;;;11.14;53.73
9893;BME280;4985;49.092;8.542;2023-02-11T08:44:14;101248.25;;;11.14;53.75
9893;BME280;4985;49.092;8.542;2023-02-11T08:46:40;101243.00;;;11.14;53.74
9893;BME280;4985;49.092;8.542;2023-02-11T08:49:07;101238.69;;;11.13;53.73
9893;BME280;4985;49.092;8.542;2023-02-11T08:51:33;101236.16;;;11.11;53.78
9893;BME280;4985;49.092;8.542;2023-02-11T08:54:00;101242.41;;;11.10;53.83
9893;BME280;4985;49.092;8.542;2023-02-11T08:56:28;101245.25;;;11.07;53.87
9893;BME280;4985;49.092;8.542;2023-02-11T08:58:57;101245.25;;;11.07;53.91
9893;BME280;4985;49.092;8.542;2023-02-11T09:01:25;101240.94;;;11.06;53.93
9893;BME280;4985;49.092;8.542;2023-02-11T09:03:52;101251.47;;;11.06;53.96
9893;BME280;4985;49.092;8.542;2023-02-11T09:06:20;101248.00;;;11.05;53.96
9893;BME280;4985;49.092;8.542;2023-02-11T09:08:48;101234.81;;;11.05;53.97
9893;BME280;4985;49.092;8.542;2023-02-11T09:11:16;101227.88;;;11.04;53.99
9893;BME280;4985;49.092;8.542;2023-02-11T09:13:43;101222.59;;;11.04;53.99
9893;BME280;4985;49.092;8.542;2023-02-11T09:16:18;101214.69;;;11.04;54.00
9893;BME280;4985;49.092;8.542;2023-02-11T09:18:45;101221.66;;;11.05;54.00
9893;BME280;4985;49.092;8.542;2023-02-11T09:21:14;101231.22;;;11.06;53.99
9893;BME280;4985;49.092;8.542;2023-02-11T09:23:41;101230.50;;;11.04;54.03
9893;BME280;4985;49.092;8.542;2023-02-11T09:26:11;101227.88;;;11.04;54.04
9893;BME280;4985;49.092;8.542;2023-02-11T09:28:38;101236.75;;;11.03;54.04
9893;BME280;4985;49.092;8.542;2023-02-11T09:31:05;101239.38;;;11.03;54.06
9893;BME280;4985;49.092;8.542;2023-02-11T09:33:34;101236.75;;;11.03;54.06
9893;BME280;4985;49.092;8.542;2023-02-11T09:36:01;101232.31;;;11.04;54.07
9893;BME280;4985;49.092;8.542;2023-02-11T09:38:28;101242.12;;;11.02;54.10
9893;BME280;4985;49.092;8.542;2023-02-11T09:40:54;101246.44;;;11.03;54.12
9893;BME280;4985;49.092;8.542;2023-02-11T09:43:23;101245.62;;;11.02;54.12
9893;BME280;4985;49.092;8.542;2023-02-11T09:45:53;101258.78;;;11.02;54.13
9893;BME280;4985;49.092;8.542;2023-02-11T09:48:21;101261.44;;;11.02;54.14
9893;BME280;4985;49.092;8.542;2023-02-11T09:50:51;101249.94;;;11.03;54.12
9893;BME280;4985;49.092;8.542;2023-02-11T09:53:22;101255.19;;;11.03;54.11
9893;BME280;4985;49.092;8.542;2023-02-11T09:55:52;101258.78;;;11.02;54.14
9893;BME280;4985;49.092;8.542;2023-02-11T09:58:24;101262.16;;;11.04;54.12
9893;BME280;4985;49.092;8.542;2023-02-11T10:00:57;101269.09;;;11.05;54.10
9893;BME280;4985;49.092;8.542;2023-02-11T10:03:41;101272.56;;;11.06;54.10
9893;BME280;4985;49.092;8.542;2023-02-11T10:06:27;101275.31;;;11.04;54.11
9893;BME280;4985;49.092;8.542;2023-02-11T10:09:06;101288.38;;;11.06;54.13
9893;BME280;4985;49.092;8.542;2023-02-11T10:11:44;101276.03;;;11.06;54.13
9893;BME280;4985;49.092;8.542;2023-02-11T10:14:28;101278.78;;;11.05;54.15
9893;BME280;4985;49.092;8.542;2023-02-11T10:17:07;101271.97;;;11.02;54.17
9893;BME280;4985;49.092;8.542;2023-02-11T10:19:47;101273.53;;;11.05;54.16
9893;BME280;4985;49.092;8.542;2023-02-11T10:22:24;101270.87;;;11.05;54.16
9893;BME280;4985;49.092;8.542;2023-02-11T10:24:54;101267.53;;;11.03;54.17
9893;BME280;4985;49.092;8.542;2023-02-11T10:27:26;101269.09;;;11.05;54.15
9893;BME280;4985;49.092;8.542;2023-02-11T10:29:57;101272.69;;;11.04;54.16
9893;BME280;4985;49.092;8.542;2023-02-11T10:32:31;101263.81;;;11.05;54.19
9893;BME280;4985;49.092;8.542;2023-02-11T10:35:03;101260.34;;;11.05;54.18
9893;BME280;4985;49.092;8.542;2023-02-11T10:37:36;101257.84;;;11.03;54.19
9893;BME280;4985;49.092;8.542;2023-02-11T10:40:05;101266.44;;;11.05;54.19
9893;BME280;4985;49.092;8.542;2023-02-11T10:42:34;101269.09;;;11.05;54.19
9893;BME280;4985;49.092;8.542;2023-02-11T10:45:03;101266.44;;;11.05;54.19
9893;BME280;4985;49.092;8.542;2023-02-11T10:47:34;101257.84;;;11.03;54.18
9893;BME280;4985;49.092;8.542;2023-02-11T10:50:17;101260.22;;;11.06;54.19
9893;BME280;4985;49.092;8.542;2023-02-11T10:52:45;101254.94;;;11.06;54.20
9893;BME280;4985;49.092;8.542;2023-02-11T10:55:15;101244.41;;;11.06;54.20
9893;BME280;4985;49.092;8.542;2023-02-11T10:57:49;101240.94;;;11.06;54.21
9893;BME280;4985;49.092;8.542;2023-02-11T11:00:22;101235.66;;;11.06;54.20
9893;BME280;4985;49.092;8.542;2023-02-11T11:02:54;101233.87;;;11.06;54.20
9893;BME280;4985;49.092;8.542;2023-02-11T11:05:27;101236.38;;;11.08;54.20
9893;BME280;4985;49.092;8.542;2023-02-11T11:07:58;101241.78;;;11.06;54.21
9893;BME280;4985;49.092;8.542;2023-02-11T11:10:28;101238.19;;;11.07;54.20
9893;BME280;4985;49.092;8.542;2023-02-11T11:12:54;101240.81;;;11.07;54.19
9893;BME280;4985;49.092;8.542;2023-02-11T11:15:23;101253.16;;;11.07;54.22
9893;BME280;4985;49.092;8.542;2023-02-11T11:17:52;101253.16;;;11.07;54.23
9893;BME280;4985;49.092;8.542;2023-02-11T11:20:34;101245.12;;;11.08;54.21
9893;BME280;4985;49.092;8.542;2023-02-11T11:23:15;101249.44;;;11.09;54.17
9893;BME280;4985;49.092;8.542;2023-02-11T11:25:44;101230.75;;;11.01;54.17
9893;BME280;4985;49.092;8.542;2023-02-11T11:28:21;101244.28;;;11.08;54.18
9893;BME280;4985;49.092;8.542;2023-02-11T11:30:50;101232.91;;;11.07;54.19
9893;BME280;4985;49.092;8.542;2023-02-11T11:33:20;101244.91;;;11.12;54.21
9893;BME280;4985;49.092;8.542;2023-02-11T11:35:57;101233.53;;;11.11;54.21
9893;BME280;4985;49.092;8.542;2023-02-11T11:38:26;101242.28;;;11.12;54.23
9893;BME280;4985;49.092;8.542;2023-02-11T11:41:14;101237.00;;;11.12;54.22
9893;BME280;4985;49.092;8.542;2023-02-11T11:43:53;101238.81;;;11.11;54.24
9893;BME280;4985;49.092;8.542;2023-02-11T11:46:23;101237.00;;;11.12;54.24
9893;BME280;4985;49.092;8.542;2023-02-11T11:48:50;101230.97;;;11.09;54.26
9893;BME280;4985;49.092;8.542;2023-02-11T11:51:19;101227.28;;;11.12;54.27
9893;BME280;4985;49.092;8.542;2023-02-11T11:53:53;101230.78;;;11.13;54.27
9893;BME280;4985;49.092;8.542;2023-02-11T11:56:24;101221.31;;;11.10;54.24
9893;BME280;4985;49.092;8.542;2023-02-11T11:58:53;101229.81;;;11.14;54.25
9893;BME280;4985;49.092;8.542;2023-02-11T12:01:29;101225.50;;;11.13;54.27
9893;BME280;4985;49.092;8.542;2023-02-11T12:04:29;101228.84;;;11.15;54.28
9893;BME280;4985;49.092;8.542;2023-02-11T12:07:10;101228.97;;;11.13;54.27
9893;BME280;4985;49.092;8.542;2023-02-11T12:09:49;101233.28;;;11.14;54.30
9893;BME280;4985;49.092;8.542;2023-02-11T12:12:26;101221.91;;;11.14;54.29
9893;BME280;4985;49.092;8.542;2023-02-11T12:15:03;101221.91;;;11.14;54.28
9893;BME280;4985;49.092;8.542;2023-02-11T12:17:46;101228.84;;;11.15;54.28
9893;BME280;4985;49.092;8.542;2023-02-11T12:20:25;101230.53;;;11.16;54.28
9893;BME280;4985;49.092;8.542;2023-02-11T12:23:20;101226.09;;;11.16;54.26
9893;BME280;4985;49.092;8.542;2023-02-11T12:26:00;101222.63;;;11.16;54.28
9893;BME280;4985;49.092;8.542;2023-02-11T12:28:38;101221.66;;;11.17;54.30
9893;BME280;4985;49.092;8.542;2023-02-11T12:31:14;101226.91;;;11.17;54.28
9893;BME280;4985;49.092;8.542;2023-02-11T12:33:58;101220.81;;;11.16;54.29
9893;BME280;4985;49.092;8.542;2023-02-11T12:36:37;101216.37;;;11.17;54.30
9893;BME280;4985;49.092;8.542;2023-02-11T12:39:16;101225.97;;;11.18;54.29
9893;BME280;4985;49.092;8.542;2023-02-11T12:42:03;101216.13;;;11.20;54.27
9893;BME280;4985;49.092;8.542;2023-02-11T12:45:07;101205.59;;;11.20;54.26
9893;BME280;4985;49.092;8.542;2023-02-11T12:47:42;101204.62;;;11.21;54.24
9893;BME280;4985;49.092;8.542;2023-02-11T12:50:17;101206.34;;;11.22;54.24
9893;BME280;4985;49.092;8.542;2023-02-11T12:53:00;101201.91;;;11.22;54.22
9893;BME280;4985;49.092;8.542;2023-02-11T12:55:29;101208.84;;;11.23;54.21
9893;BME280;4985;49.092;8.542;2023-02-11T12:58:03;101206.22;;;11.23;54.22
9893;BME280;4985;49.092;8.542;2023-02-11T13:00:41;101207.03;;;11.24;54.21
9893;BME280;4985;49.092;8.542;2023-02-11T13:03:14;101198.16;;;11.25;54.20
9893;BME280;4985;49.092;8.542;2023-02-11T13:05:47;101195.41;;;11.26;54.19
9893;BME280;4985;49.092;8.542;2023-02-11T13:08:16;101185.69;;;11.27;54.18
9893;BME280;4985;49.092;8.542;2023-02-11T13:10:47;101187.38;;;11.28;54.18
9893;BME280;4985;49.092;8.542;2023-02-11T13:13:18;101189.16;;;11.27;54.19
9893;BME280;4985;49.092;8.542;2023-02-11T13:15:50;101194.31;;;11.29;54.18
9893;BME280;4985;49.092;8.542;2023-02-11T13:18:29;101189.16;;;11.27;54.21
9893;BME280;4985;49.092;8.542;2023-02-11T13:21:22;101180.69;;;11.24;54.20
9893;BME280;4985;49.092;8.542;2023-02-11T13:23:56;101194.31;;;11.29;54.21
9893;BME280;4985;49.092;8.542;2023-02-11T13:26:30;101185.69;;;11.27;54.21